Station: Gosford  

  Atmospheric Gas Attenuation - ITU Rec 676-11   ----------------- dB/100km -----------------
Date Time Temp RH % AH g/m3 Dew Point Wind Direction Speed kph Gust kph Barometer mB Rainfall Since 9am 24GHz 47GHz 76GHz 122GHz 134GHz 241GHz
08/05 12:30 19.8 39 6.66 5.5 19 30 1013.1 0 15.2 21.4 30.0 78.4 68.3 233.9
08/05 12:20 19.8 40 6.83 6.1 13 20 1013.1 0 15.6 21.7 30.6 79.9 70.3 240.7
08/05 12:10 19.6 40 6.75 5.6 13 19 1013.1 0 15.4 21.6 30.4 79.4 69.5 238.1
08/05 12:00 19.1 40 6.56 5.2 20 30 1013.1 0 15.0 21.4 29.9 78.1 67.8 231.9
08/05 11:50 18.8 42 6.76 5.6 13 19 1013.1 0 15.5 21.8 30.7 80.3 70.4 240.8
08/05 11:40 18.7 42 6.72 5.5 15 22 1013.1 0 15.4 21.8 30.6 80.0 70.0 239.5
08/05 11:30 18.9 43 6.97 6.1 13 20 1013.1 0 15.9 22.1 31.4 82.1 72.7 249.0
08/05 11:20 18.3 43 6.72 5.5 13 17 1013.1 0 15.4 21.9 30.8 80.4 70.3 240.7
08/05 11:10 18.1 43 6.64 5.3 22 30 1013.1 0 15.2 21.8 30.6 79.8 69.6 238.0
08/05 11:00 17.9 44 6.72 5.5 19 33 1013.1 0 15.4 21.9 30.9 80.8 70.7 241.8
08/05 10:50 17.8 45 6.83 5.7 20 24 1013.1 0 15.7 22.1 31.3 81.9 72.1 246.7
08/05 10:40 17.2 44 6.44 4.8 17 24 1013.1 0 14.9 21.7 30.2 78.8 68.0 232.5
08/05 10:30 17.2 47 6.88 5.8 17 28 1013.1 0 15.8 22.3 31.8 83.0 73.2 250.6
08/05 10:20 16.9 47 6.76 5.5 15 17 1013.1 0 15.5 22.2 31.4 82.2 72.0 246.5
08/05 10:10 16.3 47 6.52 5.2 19 22 1013.1 0 15.1 22.0 30.8 80.5 69.7 238.4
08/05 10:00 16.1 49 6.72 5.4 19 30 1013.1 0 15.5 22.4 31.6 82.6 72.3 247.3
08/05 09:50 16 48 6.54 5 11 15 1013.1 0 15.1 22.1 31.0 81.0 70.2 240.1
08/05 09:40 15.5 48 6.34 4.5 9 9 1013.1 0 14.7 22.0 30.5 79.5 68.3 233.2
08/05 09:30 15.4 50 6.57 5 11 26 1013.1 0 15.2 22.3 31.3 81.9 71.1 243.1
08/05 09:20 15 48 6.15 4.3 11 15 1013.1 0 14.3 21.8 30.0 78.2 66.5 226.7
08/05 09:10 14.4 49 6.06 3.8 6 11 1013.1 0 14.2 21.8 29.9 77.9 65.9 224.7
08/05 09:00 14.1 51 6.19 4.1 9 20 1013.1 0 14.4 22.1 30.4 79.5 67.7 231.0
08/05 08:50 13.7 51 6.04 3.7 13 15 1013.1 0 14.1 22.0 30.1 78.4 66.2 225.8
08/05 08:40 13.7 51 6.04 3.7 4 6 1013.1 0 14.1 22.0 30.1 78.4 66.2 225.8
08/05 08:30 14 52 6.27 4.3 4 7 1013.1 0 14.6 22.2 30.8 80.4 68.8 234.6
08/05 08:20 13.4 54 6.28 4.3 4 6 1013.1 0 14.7 22.4 31.0 81.1 69.4 236.8
08/05 08:10 13 51 5.78 3.1 4 6 1013.1 0 13.6 21.7 29.4 76.6 63.7 216.8
08/05 08:00 12.8 51 5.71 2.9 2 4 1013.1 0 13.5 21.7 29.2 76.1 63.0 214.4
08/05 07:50 12 54 5.76 3 4 4 1013.1 0 13.6 22.0 29.7 77.3 64.3 218.6
08/05 07:40 11.5 56 5.79 3 7 11 1013.1 0 13.7 22.1 29.9 78.1 65.0 221.3
08/05 07:30 10.9 58 5.77 3 9 19 1013.1 0 13.7 22.2 30.1 78.5 65.3 222.1
08/05 07:20 10.2 59 5.62 2.5 4 6 1013.1 0 13.4 22.2 29.8 77.7 64.0 217.5
08/05 07:10 9.5 64 5.83 3 0 2 1013.1 0 13.8 22.7 30.8 80.5 67.2 228.6
08/05 07:00 9 64 5.64 2.6 6 9 1013.1 0 13.5 22.5 30.3 79.1 65.2 221.7
08/05 06:50 8.8 63 5.49 2.3 7 7 1013.1 0 13.1 22.3 29.8 77.7 63.5 215.6
08/05 06:40 8 65 5.38 1.8 4 4 1013.1 0 12.9 22.4 29.7 77.4 62.8 212.9
08/05 06:30 7.8 66 5.39 1.9 4 7 1013.1 0 13.0 22.4 29.8 77.7 63.1 213.9
08/05 06:20 7 72 5.58 2.3 4 6 1013.1 0 13.4 22.9 30.8 80.5 66.2 224.6
08/05 06:10 6.7 73 5.55 2.2 2 2 1013.1 0 13.4 22.9 30.8 80.5 66.0 224.1
08/05 06:00 7.1 72 5.62 2.4 2 4 1013.1 0 13.5 23.0 31.0 80.8 66.6 226.1
08/05 05:50 6.5 75 5.63 2.5 0 0 1013.1 0 13.5 23.1 31.2 81.5 67.2 228.3
08/05 05:40 6.8 74 5.66 2.5 2 4 1013.1 0 13.6 23.1 31.2 81.5 67.4 228.8
08/05 05:30 6.7 73 5.55 2.2 0 4 1013.1 0 13.4 22.9 30.8 80.5 66.0 224.1
08/05 05:20 6.6 72 5.44 1.9 2 2 1013.1 0 13.1 22.8 30.4 79.4 64.7 219.4
08/05 05:10 6.7 71 5.4 1.8 0 0 1013.1 0 13.0 22.7 30.3 78.9 64.1 217.3
08/05 05:00 6.9 69 5.31 1.6 4 9 1013.1 0 12.8 22.5 29.8 77.8 62.8 212.7
08/05 04:50 6.7 72 5.47 2 0 0 1013.1 0 13.2 22.8 30.5 79.6 65.0 220.5
08/05 04:40 6.1 72 5.26 1.4 0 0 1013.1 0 12.7 22.6 29.9 78.0 62.8 212.6
08/05 04:30 6.1 72 5.26 1.4 0 0 1013.1 0 12.7 22.6 29.9 78.0 62.8 212.6
08/05 04:20 6 72 5.23 1.3 0 0 1013.1 0 12.7 22.6 29.9 77.8 62.5 211.6
08/05 04:10 6.1 72 5.26 1.4 0 0 1013.1 0 12.7 22.6 29.9 78.0 62.8 212.6
08/05 04:00 6 71 5.16 1.2 4 6 1013.1 0 12.5 22.5 29.6 77.1 61.6 208.4
08/05 03:50 6.5 70 5.25 1.4 0 0 1013.1 0 12.7 22.5 29.8 77.5 62.3 211.1
08/05 03:40 6.5 70 5.25 1.4 0 0 1013.1 0 12.7 22.5 29.8 77.5 62.3 211.1
08/05 03:30 6.6 68 5.14 1.1 0 4 1013.1 0 12.5 22.3 29.3 76.3 60.9 205.9
08/05 03:20 7 64 4.96 0.8 2 4 1013.1 0 12.1 22.0 28.5 74.1 58.3 197.0
08/05 03:10 7.6 62 5 0.8 2 4 1013.1 0 12.1 21.9 28.4 73.9 58.4 197.2
08/05 03:00 7.4 63 5.01 0.8 4 7 1013.1 0 12.2 21.9 28.5 74.2 58.6 198.2
08/05 02:50 7.6 61 4.92 0.5 4 4 1013.1 0 12.0 21.8 28.1 73.1 57.4 193.8
08/05 02:40 7.8 59 4.82 0.3 2 4 1013.1 0 11.8 21.6 27.7 72.0 56.0 188.9
08/05 02:30 7.3 60 4.74 0.1 4 6 1013.1 0 11.6 21.6 27.5 71.6 55.3 186.6
08/05 02:20 8 58 4.8 0.2 4 4 1013.1 0 11.7 21.5 27.5 71.6 55.6 187.6
08/05 02:10 8.2 56 4.69 -0.1 2 2 1013.1 0 11.5 21.3 27.0 70.3 54.1 182.4
08/05 02:00 8.3 55 4.64 -0.2 0 6 1013.1 0 11.4 21.2 26.8 69.7 53.4 180.1
08/05 01:50 8.9 52 4.56 -0.4 4 4 1013.1 0 11.2 20.9 26.3 68.4 52.1 175.4
08/05 01:40 9.1 53 4.7 0 4 7 1013.1 0 11.5 21.1 26.8 69.6 53.6 180.8
08/05 01:30 9.1 54 4.79 0.3 7 15 1013.1 0 11.6 21.2 27.1 70.5 54.7 184.6
08/05 01:20 8.9 55 4.82 0.3 6 7 1013.1 0 11.7 21.3 27.3 71.0 55.2 186.4
08/05 01:10 9.2 53 4.73 0.1 9 11 1013.1 0 11.5 21.1 26.9 69.8 53.9 181.9
08/05 01:00 9.2 52 4.64 -0.1 6 13 1013.1 0 11.3 21.0 26.5 69.0 52.8 178.1
08/05 00:50 9.2 53 4.73 0.1 6 9 1013.1 0 11.5 21.1 26.9 69.8 53.9 181.9
08/05 00:40 9.3 53 4.76 0.2 9 11 1013.1 0 11.6 21.1 26.9 70.0 54.2 182.9
08/05 00:20 9.6 51 4.67 -0.1 9 9 1013.1 0 11.4 20.9 26.5 68.9 52.9 178.4
08/05 00:10 9.4 52 4.7 0 7 9 1013.1 0 11.4 21.0 26.7 69.4 53.4 180.2
08/05 00:00 9.5 52 4.73 0.1 7 13 1013.1 0 11.5 21.0 26.8 69.6 53.7 181.2
07/05 23:50 9.9 50 4.67 -0.1 7 9 1013.1 0 11.4 20.8 26.4 68.6 52.7 177.8
07/05 23:40 10 50 4.7 0 9 13 1013.1 0 11.4 20.9 26.5 68.8 53.0 178.8
07/05 23:30 10.1 50 4.73 0.2 9 19 1013.1 0 11.5 20.9 26.6 69.1 53.3 179.9
07/05 23:20 10 50 4.7 0 11 17 1013.1 0 11.4 20.9 26.5 68.8 53.0 178.8
07/05 23:10 9.7 50 4.61 -0.2 9 9 1013.1 0 11.2 20.8 26.3 68.2 52.1 175.7
07/05 23:00 10.1 49 4.63 -0.1 7 13 1013.1 0 11.3 20.7 26.2 68.1 52.1 175.7
07/05 22:50 10 49 4.61 -0.2 7 9 1013.1 0 11.2 20.7 26.2 68.0 52.0 175.1
07/05 22:40 10.4 47 4.53 -0.5 9 11 1013.1 0 11.1 20.5 25.8 66.9 50.8 170.9
07/05 22:30 10.5 47 4.56 -0.3 15 22 1013.1 0 11.1 20.6 25.8 67.1 51.0 171.9
07/05 22:20 10.5 48 4.66 -0.1 13 17 1013.1 0 11.3 20.7 26.2 68.0 52.2 176.1
07/05 22:10 10.7 47 4.62 -0.2 11 15 1013.1 0 11.2 20.6 26.0 67.5 51.6 174.0
07/05 22:00 10.6 46 4.49 -0.5 13 20 1013.1 0 11.0 20.4 25.6 66.3 50.2 168.8
07/05 21:50 11 45 4.51 -0.5 15 15 1013.1 0 11.0 20.4 25.5 66.2 50.1 168.8
07/05 21:40 11.3 45 4.59 -0.2 17 28 1013.1 0 11.2 20.4 25.7 66.7 50.9 171.5
07/05 21:30 11.5 43 4.44 -0.6 17 24 1013.1 0 10.8 20.2 25.1 65.1 49.0 164.9
07/05 21:20 11.5 43 4.44 -0.7 28 33 1013.1 0 10.8 20.2 25.1 65.1 49.0 164.9
07/05 21:10 11.3 45 4.59 -0.2 15 20 1013.1 0 11.2 20.4 25.7 66.7 50.9 171.5
07/05 21:00 10.9 46 4.58 -0.2 13 19 1013.1 0 11.1 20.5 25.8 66.9 51.0 171.9
07/05 20:50 10.9 47 4.68 0 11 13 1013.1 0 11.4 20.6 26.1 67.9 52.2 176.0
07/05 20:40 11.1 45 4.53 -0.4 13 15 1013.1 0 11.0 20.4 25.5 66.3 50.3 169.4
07/05 20:30 11.2 45 4.56 -0.3 13 20 1013.1 0 11.1 20.4 25.6 66.5 50.6 170.5
07/05 20:20 11.6 43 4.47 -0.6 11 15 1013.1 0 10.9 20.2 25.2 65.3 49.3 166.0
07/05 20:10 11.7 43 4.5 -0.5 17 19 1013.1 0 10.9 20.2 25.2 65.5 49.6 167.0
07/05 20:00 11.8 42 4.42 -0.7 11 20 1013.1 0 10.8 20.1 24.9 64.7 48.6 163.5
07/05 19:50 12 41 4.37 -0.9 13 15 1013.1 0 10.7 20.0 24.7 64.1 47.9 161.1

Last Refresh: 08-May-2026 12:09:22

Bureau of Meteorology